sensor_id;sensor_type;location;lat;lon;timestamp;pressure;altitude;pressure_sealevel;temperature;humidity
33280;BME280;20403;43.114;12.434;2022-07-23T00:00:01;99253.53;;;27.45;87.63
33280;BME280;20403;43.114;12.434;2022-07-23T00:02:26;99258.63;;;27.38;87.42
33280;BME280;20403;43.114;12.434;2022-07-23T00:04:51;99260.72;;;27.20;89.99
33280;BME280;20403;43.114;12.434;2022-07-23T00:07:17;99264.78;;;26.96;93.38
33280;BME280;20403;43.114;12.434;2022-07-23T00:09:42;99263.94;;;26.83;96.38
33280;BME280;20403;43.114;12.434;2022-07-23T00:12:08;99261.06;;;26.68;99.86
33280;BME280;20403;43.114;12.434;2022-07-23T00:14:33;99265.38;;;26.51;100.00
33280;BME280;20403;43.114;12.434;2022-07-23T00:16:59;99265.69;;;26.50;99.17
33280;BME280;20403;43.114;12.434;2022-07-23T00:19:24;99261.00;;;26.47;100.00
33280;BME280;20403;43.114;12.434;2022-07-23T00:21:50;99263.13;;;26.32;100.00
33280;BME280;20403;43.114;12.434;2022-07-23T00:24:15;99268.78;;;26.31;99.31
33280;BME280;20403;43.114;12.434;2022-07-23T00:26:41;99265.66;;;26.29;100.00
33280;BME280;20403;43.114;12.434;2022-07-23T04:40:57;99301.44;;;22.51;100.00
33280;BME280;20403;43.114;12.434;2022-07-23T04:43:23;99307.44;;;22.42;100.00
33280;BME280;20403;43.114;12.434;2022-07-23T04:45:48;99312.75;;;22.42;100.00
33280;BME280;20403;43.114;12.434;2022-07-23T04:48:14;99309.81;;;22.44;100.00
33280;BME280;20403;43.114;12.434;2022-07-23T04:50:40;99307.34;;;22.48;100.00
33280;BME280;20403;43.114;12.434;2022-07-23T04:53:05;99305.38;;;22.67;100.00
33280;BME280;20403;43.114;12.434;2022-07-23T04:55:31;99300.72;;;22.73;100.00
33280;BME280;20403;43.114;12.434;2022-07-23T04:57:56;99300.59;;;22.92;100.00
33280;BME280;20403;43.114;12.434;2022-07-23T05:00:22;99298.94;;;22.96;100.00
33280;BME280;20403;43.114;12.434;2022-07-23T05:02:47;99295.69;;;22.99;100.00
33280;BME280;20403;43.114;12.434;2022-07-23T05:05:13;99298.94;;;22.96;100.00
33280;BME280;20403;43.114;12.434;2022-07-23T05:07:38;99294.22;;;23.06;100.00
33280;BME280;20403;43.114;12.434;2022-07-23T05:10:04;99293.59;;;23.10;100.00
33280;BME280;20403;43.114;12.434;2022-07-23T05:12:29;99304.22;;;23.23;100.00
33280;BME280;20403;43.114;12.434;2022-07-23T05:14:55;99303.69;;;23.35;100.00
33280;BME280;20403;43.114;12.434;2022-07-23T05:17:20;99303.97;;;23.34;100.00
33280;BME280;20403;43.114;12.434;2022-07-23T05:19:46;99312.63;;;23.39;100.00
33280;BME280;20403;43.114;12.434;2022-07-23T05:22:11;99309.19;;;23.39;100.00
33280;BME280;20403;43.114;12.434;2022-07-23T05:24:36;99313.56;;;23.57;100.00
33280;BME280;20403;43.114;12.434;2022-07-23T05:27:02;99313.59;;;23.66;100.00
33280;BME280;20403;43.114;12.434;2022-07-23T05:29:27;99319.22;;;23.78;100.00
33280;BME280;20403;43.114;12.434;2022-07-23T05:31:53;99315.69;;;23.92;100.00
33280;BME280;20403;43.114;12.434;2022-07-23T05:34:18;99320.13;;;23.96;100.00
33280;BME280;20403;43.114;12.434;2022-07-23T05:36:43;99317.38;;;24.10;100.00
33280;BME280;20403;43.114;12.434;2022-07-23T05:39:09;99314.59;;;24.24;100.00
33280;BME280;20403;43.114;12.434;2022-07-23T05:41:34;99312.53;;;24.21;100.00
33280;BME280;20403;43.114;12.434;2022-07-23T05:43:59;99314.66;;;24.41;100.00
33280;BME280;20403;43.114;12.434;2022-07-23T05:46:25;99311.47;;;24.62;100.00
33280;BME280;20403;43.114;12.434;2022-07-23T05:48:50;99319.66;;;24.74;100.00
33280;BME280;20403;43.114;12.434;2022-07-23T05:51:25;99316.84;;;24.88;100.00
33280;BME280;20403;43.114;12.434;2022-07-23T05:53:51;99320.03;;;24.99;100.00
33280;BME280;20403;43.114;12.434;2022-07-23T05:56:19;99312.97;;;25.03;100.00
33280;BME280;20403;43.114;12.434;2022-07-23T05:58:44;99321.91;;;25.15;100.00
33280;BME280;20403;43.114;12.434;2022-07-23T06:01:10;99328.56;;;25.27;100.00
33280;BME280;20403;43.114;12.434;2022-07-23T06:03:37;99316.78;;;25.36;100.00
33280;BME280;20403;43.114;12.434;2022-07-23T06:06:03;99316.59;;;25.50;100.00
33280;BME280;20403;43.114;12.434;2022-07-23T06:08:29;99317.84;;;25.53;100.00
33280;BME280;20403;43.114;12.434;2022-07-23T06:10:54;99320.03;;;25.68;100.00
33280;BME280;20403;43.114;12.434;2022-07-23T06:13:20;99316.25;;;25.78;100.00
33280;BME280;20403;43.114;12.434;2022-07-23T06:15:45;99318.78;;;25.92;100.00
33280;BME280;20403;43.114;12.434;2022-07-23T06:18:11;99317.34;;;26.03;100.00
33280;BME280;20403;43.114;12.434;2022-07-23T06:20:36;99318.25;;;26.16;100.00
33280;BME280;20403;43.114;12.434;2022-07-23T06:23:02;99310.78;;;26.30;100.00
33280;BME280;20403;43.114;12.434;2022-07-23T06:25:27;99322.38;;;26.43;100.00
33280;BME280;20403;43.114;12.434;2022-07-23T06:27:52;99320.13;;;26.63;100.00
33280;BME280;20403;43.114;12.434;2022-07-23T06:30:18;99320.34;;;26.78;100.00
33280;BME280;20403;43.114;12.434;2022-07-23T06:32:44;99315.56;;;26.84;100.00
33280;BME280;20403;43.114;12.434;2022-07-23T06:35:10;99317.72;;;26.91;100.00
33280;BME280;20403;43.114;12.434;2022-07-23T06:37:35;99319.94;;;26.89;100.00
33280;BME280;20403;43.114;12.434;2022-07-23T06:40:02;99327.41;;;27.04;100.00
33280;BME280;20403;43.114;12.434;2022-07-23T06:42:27;99319.50;;;27.08;100.00
33280;BME280;20403;43.114;12.434;2022-07-23T06:44:52;99325.09;;;27.23;100.00
33280;BME280;20403;43.114;12.434;2022-07-23T06:47:18;99327.81;;;27.36;100.00
33280;BME280;20403;43.114;12.434;2022-07-23T06:49:43;99320.84;;;27.43;100.00
33280;BME280;20403;43.114;12.434;2022-07-23T06:52:09;99321.09;;;27.51;100.00
33280;BME280;20403;43.114;12.434;2022-07-23T06:54:34;99309.09;;;27.69;100.00
33280;BME280;20403;43.114;12.434;2022-07-23T06:57:00;99317.03;;;27.78;100.00
33280;BME280;20403;43.114;12.434;2022-07-23T06:59:25;99319.31;;;27.88;100.00
33280;BME280;20403;43.114;12.434;2022-07-23T07:01:50;99319.59;;;28.07;100.00
33280;BME280;20403;43.114;12.434;2022-07-23T07:04:16;99314.59;;;28.31;99.50
33280;BME280;20403;43.114;12.434;2022-07-23T07:06:41;99316.84;;;28.53;93.79
33280;BME280;20403;43.114;12.434;2022-07-23T07:09:07;99315.50;;;28.59;92.91
33280;BME280;20403;43.114;12.434;2022-07-23T07:11:32;99313.81;;;28.79;96.15
33280;BME280;20403;43.114;12.434;2022-07-23T07:13:57;99316.03;;;28.89;95.89
33280;BME280;20403;43.114;12.434;2022-07-23T07:16:23;99309.63;;;28.94;90.08
33280;BME280;20403;43.114;12.434;2022-07-23T07:18:48;99310.53;;;28.98;90.15
33280;BME280;20403;43.114;12.434;2022-07-23T07:21:14;99312.31;;;28.94;89.11
33280;BME280;20403;43.114;12.434;2022-07-23T07:23:39;99302.00;;;29.21;95.57
33280;BME280;20403;43.114;12.434;2022-07-23T07:26:05;99303.59;;;29.38;88.41
33280;BME280;20403;43.114;12.434;2022-07-23T07:28:31;99304.34;;;29.66;87.37
33280;BME280;20403;43.114;12.434;2022-07-23T07:30:56;99297.38;;;29.93;84.29
33280;BME280;20403;43.114;12.434;2022-07-23T07:33:22;99296.09;;;30.19;79.05
33280;BME280;20403;43.114;12.434;2022-07-23T07:35:47;99285.94;;;30.28;79.72
33280;BME280;20403;43.114;12.434;2022-07-23T07:38:12;99287.06;;;30.43;77.56
33280;BME280;20403;43.114;12.434;2022-07-23T07:40:38;99284.41;;;30.63;77.98
33280;BME280;20403;43.114;12.434;2022-07-23T07:43:03;99281.41;;;30.84;73.10
33280;BME280;20403;43.114;12.434;2022-07-23T07:45:29;99280.63;;;30.83;74.01
33280;BME280;20403;43.114;12.434;2022-07-23T07:47:55;99283.00;;;31.04;72.69
33280;BME280;20403;43.114;12.434;2022-07-23T07:50:21;99280.06;;;31.32;72.16
33280;BME280;20403;43.114;12.434;2022-07-23T07:52:47;99276.72;;;31.58;67.98
33280;BME280;20403;43.114;12.434;2022-07-23T07:55:12;99275.84;;;31.74;66.72
33280;BME280;20403;43.114;12.434;2022-07-23T07:57:39;99272.06;;;31.78;60.89
33280;BME280;20403;43.114;12.434;2022-07-23T08:00:06;99283.94;;;31.74;57.09
33280;BME280;20403;43.114;12.434;2022-07-23T08:05:11;99285.44;;;31.71;56.01
33280;BME280;20403;43.114;12.434;2022-07-23T08:07:37;99276.69;;;31.78;53.87
33280;BME280;20403;43.114;12.434;2022-07-23T08:10:05;99279.44;;;32.05;53.93
33280;BME280;20403;43.114;12.434;2022-07-23T08:15:10;99273.31;;;32.57;53.20
33280;BME280;20403;43.114;12.434;2022-07-23T08:17:36;99277.00;;;32.72;51.28
33280;BME280;20403;43.114;12.434;2022-07-23T08:20:02;99265.63;;;32.90;52.14
33280;BME280;20403;43.114;12.434;2022-07-23T08:22:51;99264.19;;;32.99;50.23
33280;BME280;20403;43.114;12.434;2022-07-23T08:25:29;99267.88;;;33.14;50.44
33280;BME280;20403;43.114;12.434;2022-07-23T08:27:55;99275.16;;;33.10;49.82
33280;BME280;20403;43.114;12.434;2022-07-23T08:30:22;99275.75;;;32.96;44.85
33280;BME280;20403;43.114;12.434;2022-07-23T08:32:59;99267.69;;;33.00;43.93
33280;BME280;20403;43.114;12.434;2022-07-23T08:37:54;99276.38;;;33.16;42.46
33280;BME280;20403;43.114;12.434;2022-07-23T08:40:20;99269.88;;;33.58;42.81
33280;BME280;20403;43.114;12.434;2022-07-23T08:42:50;99265.03;;;33.37;42.03
33280;BME280;20403;43.114;12.434;2022-07-23T08:45:17;99267.44;;;33.46;42.78
33280;BME280;20403;43.114;12.434;2022-07-23T08:47:44;99267.72;;;33.75;43.62
33280;BME280;20403;43.114;12.434;2022-07-23T08:50:10;99274.97;;;33.30;43.32
33280;BME280;20403;43.114;12.434;2022-07-23T08:52:36;99265.78;;;33.38;44.27
33280;BME280;20403;43.114;12.434;2022-07-23T08:55:03;99262.41;;;33.89;43.66
33280;BME280;20403;43.114;12.434;2022-07-23T08:57:28;99263.41;;;34.15;42.75
33280;BME280;20403;43.114;12.434;2022-07-23T08:59:54;99264.09;;;34.04;40.51
33280;BME280;20403;43.114;12.434;2022-07-23T09:02:20;99260.34;;;34.20;42.98
33280;BME280;20403;43.114;12.434;2022-07-23T09:04:45;99263.06;;;34.23;40.01
33280;BME280;20403;43.114;12.434;2022-07-23T09:07:11;99260.53;;;34.48;39.08
33280;BME280;20403;43.114;12.434;2022-07-23T09:09:36;99255.25;;;34.73;39.23
33280;BME280;20403;43.114;12.434;2022-07-23T09:12:04;99266.34;;;34.54;39.09
33280;BME280;20403;43.114;12.434;2022-07-23T09:17:13;99266.50;;;34.76;38.48
33280;BME280;20403;43.114;12.434;2022-07-23T09:19:40;99265.38;;;34.91;36.96
33280;BME280;20403;43.114;12.434;2022-07-23T09:22:23;99267.72;;;34.96;36.66
33280;BME280;20403;43.114;12.434;2022-07-23T09:25:06;99266.97;;;35.03;37.76
33280;BME280;20403;43.114;12.434;2022-07-23T09:27:57;99258.91;;;35.13;35.23
33280;BME280;20403;43.114;12.434;2022-07-23T09:30:28;99263.81;;;34.93;36.37
33280;BME280;20403;43.114;12.434;2022-07-23T09:33:04;99261.66;;;35.31;37.54
33280;BME280;20403;43.114;12.434;2022-07-23T09:35:45;99257.38;;;35.27;32.99
33280;BME280;20403;43.114;12.434;2022-07-23T09:38:11;99253.16;;;35.72;34.52
33280;BME280;20403;43.114;12.434;2022-07-23T09:40:36;99250.47;;;35.87;33.80
33280;BME280;20403;43.114;12.434;2022-07-23T09:43:02;99256.66;;;35.59;34.00
33280;BME280;20403;43.114;12.434;2022-07-23T09:45:27;99246.22;;;35.64;34.35
33280;BME280;20403;43.114;12.434;2022-07-23T09:48:12;99244.66;;;35.92;34.80
33280;BME280;20403;43.114;12.434;2022-07-23T09:50:41;99240.00;;;36.17;34.04
33280;BME280;20403;43.114;12.434;2022-07-23T09:53:06;99240.69;;;36.43;34.58
33280;BME280;20403;43.114;12.434;2022-07-23T09:55:34;99243.00;;;36.59;34.28
33280;BME280;20403;43.114;12.434;2022-07-23T09:58:05;99236.22;;;36.96;34.00
33280;BME280;20403;43.114;12.434;2022-07-23T10:00:32;99237.56;;;36.59;31.99
33280;BME280;20403;43.114;12.434;2022-07-23T10:02:59;99237.59;;;36.41;33.82
33280;BME280;20403;43.114;12.434;2022-07-23T10:05:25;99234.50;;;36.32;32.53
33280;BME280;20403;43.114;12.434;2022-07-23T10:07:51;99230.31;;;36.16;32.51
33280;BME280;20403;43.114;12.434;2022-07-23T10:10:17;99230.94;;;36.53;33.12
33280;BME280;20403;43.114;12.434;2022-07-23T10:12:45;99230.06;;;36.88;33.01
33280;BME280;20403;43.114;12.434;2022-07-23T10:15:17;99228.06;;;37.07;32.43
33280;BME280;20403;43.114;12.434;2022-07-23T10:17:43;99227.25;;;37.10;32.80
33280;BME280;20403;43.114;12.434;2022-07-23T10:20:09;99226.44;;;37.13;32.63
33280;BME280;20403;43.114;12.434;2022-07-23T10:22:42;99222.47;;;37.28;32.36
33280;BME280;20403;43.114;12.434;2022-07-23T10:32:56;99216.34;;;37.69;32.27
33280;BME280;20403;43.114;12.434;2022-07-23T10:35:36;99213.81;;;37.89;32.47
33280;BME280;20403;43.114;12.434;2022-07-23T10:38:27;99202.47;;;38.01;32.51
33280;BME280;20403;43.114;12.434;2022-07-23T10:41:03;99212.22;;;37.92;31.18
33280;BME280;20403;43.114;12.434;2022-07-23T10:43:30;99206.47;;;37.37;32.29
33280;BME280;20403;43.114;12.434;2022-07-23T10:46:23;99198.31;;;37.37;32.07
33280;BME280;20403;43.114;12.434;2022-07-23T10:49:28;99194.28;;;37.98;33.20
33280;BME280;20403;43.114;12.434;2022-07-23T10:52:23;99175.25;;;38.66;31.68
33280;BME280;20403;43.114;12.434;2022-07-23T10:57:28;99181.16;;;38.27;31.44
33280;BME280;20403;43.114;12.434;2022-07-23T11:02:31;99172.81;;;38.41;31.07
33280;BME280;20403;43.114;12.434;2022-07-23T11:05:04;99177.00;;;38.80;30.59
33280;BME280;20403;43.114;12.434;2022-07-23T11:07:30;99169.25;;;39.06;30.58
33280;BME280;20403;43.114;12.434;2022-07-23T11:09:55;99157.63;;;39.25;28.93
33280;BME280;20403;43.114;12.434;2022-07-23T11:17:39;99148.41;;;39.43;29.25
33280;BME280;20403;43.114;12.434;2022-07-23T11:20:23;99147.16;;;39.47;28.12
33280;BME280;20403;43.114;12.434;2022-07-23T11:22:51;99137.50;;;39.86;27.98
33280;BME280;20403;43.114;12.434;2022-07-23T11:27:53;99137.41;;;40.30;26.84
33280;BME280;20403;43.114;12.434;2022-07-23T11:32:55;99130.44;;;39.89;26.36
33280;BME280;20403;43.114;12.434;2022-07-23T11:35:51;99133.78;;;39.97;27.03
33280;BME280;20403;43.114;12.434;2022-07-23T11:38:25;99135.13;;;39.65;26.73
33280;BME280;20403;43.114;12.434;2022-07-23T11:40:53;99123.53;;;39.61;26.32
33280;BME280;20403;43.114;12.434;2022-07-23T11:43:20;99121.56;;;39.61;27.23
33280;BME280;20403;43.114;12.434;2022-07-23T11:45:53;99113.44;;;39.58;26.21
33280;BME280;20403;43.114;12.434;2022-07-23T11:48:24;99112.13;;;39.66;27.16
33280;BME280;20403;43.114;12.434;2022-07-23T11:50:51;99105.38;;;39.94;25.33
33280;BME280;20403;43.114;12.434;2022-07-23T11:53:23;99101.72;;;40.01;25.46
33280;BME280;20403;43.114;12.434;2022-07-23T11:55:49;99103.75;;;39.97;26.56
33280;BME280;20403;43.114;12.434;2022-07-23T11:58:14;99108.00;;;39.98;25.47
33280;BME280;20403;43.114;12.434;2022-07-23T12:00:41;99097.56;;;39.29;25.21
33280;BME280;20403;43.114;12.434;2022-07-23T12:03:06;99099.94;;;39.70;26.48
33280;BME280;20403;43.114;12.434;2022-07-23T12:05:34;99095.19;;;39.95;26.28
33280;BME280;20403;43.114;12.434;2022-07-23T12:08:02;99096.50;;;40.06;25.54
33280;BME280;20403;43.114;12.434;2022-07-23T12:12:58;99087.94;;;40.44;25.68
33280;BME280;20403;43.114;12.434;2022-07-23T12:15:25;99085.44;;;40.33;25.50
33280;BME280;20403;43.114;12.434;2022-07-23T12:17:51;99077.34;;;40.10;26.32
33280;BME280;20403;43.114;12.434;2022-07-23T12:20:23;99075.63;;;40.36;26.52
33280;BME280;20403;43.114;12.434;2022-07-23T12:22:56;99070.09;;;40.40;26.20
33280;BME280;20403;43.114;12.434;2022-07-23T12:25:24;99062.50;;;40.64;24.93
33280;BME280;20403;43.114;12.434;2022-07-23T12:30:32;99069.84;;;39.94;25.51
33280;BME280;20403;43.114;12.434;2022-07-23T12:32:59;99070.69;;;39.71;25.57
33280;BME280;20403;43.114;12.434;2022-07-23T12:35:31;99062.97;;;39.66;26.23
33280;BME280;20403;43.114;12.434;2022-07-23T12:38:01;99065.84;;;39.99;26.67
33280;BME280;20403;43.114;12.434;2022-07-23T12:40:30;99067.19;;;39.70;26.12
33280;BME280;20403;43.114;12.434;2022-07-23T12:45:44;99062.75;;;39.77;25.98
33280;BME280;20403;43.114;12.434;2022-07-23T12:48:16;99064.00;;;39.72;25.84
33280;BME280;20403;43.114;12.434;2022-07-23T12:50:58;99056.09;;;39.98;26.10
33280;BME280;20403;43.114;12.434;2022-07-23T12:53:25;99051.34;;;40.02;25.67
33280;BME280;20403;43.114;12.434;2022-07-23T12:56:02;99040.16;;;39.96;25.48
33280;BME280;20403;43.114;12.434;2022-07-23T12:58:39;99048.50;;;40.25;25.40
33280;BME280;20403;43.114;12.434;2022-07-23T13:01:05;99059.50;;;40.42;25.64
33280;BME280;20403;43.114;12.434;2022-07-23T13:03:39;99051.88;;;40.49;25.50
33280;BME280;20403;43.114;12.434;2022-07-23T13:06:08;99038.41;;;40.59;25.25
33280;BME280;20403;43.114;12.434;2022-07-23T13:08:35;99042.13;;;39.96;24.79
33280;BME280;20403;43.114;12.434;2022-07-23T13:11:03;99037.00;;;39.78;24.82
33280;BME280;20403;43.114;12.434;2022-07-23T13:13:31;99022.31;;;39.52;25.35
33280;BME280;20403;43.114;12.434;2022-07-23T13:15:57;99031.88;;;39.40;25.16
33280;BME280;20403;43.114;12.434;2022-07-23T13:18:23;99029.16;;;39.40;26.03
33280;BME280;20403;43.114;12.434;2022-07-23T13:20:50;99021.16;;;39.29;26.10
33280;BME280;20403;43.114;12.434;2022-07-23T13:23:16;99020.56;;;39.61;26.13
33280;BME280;20403;43.114;12.434;2022-07-23T13:25:41;99015.09;;;39.81;24.44
33280;BME280;20403;43.114;12.434;2022-07-23T13:28:07;99014.69;;;39.83;24.70
33280;BME280;20403;43.114;12.434;2022-07-23T13:30:32;99014.75;;;39.79;25.68
33280;BME280;20403;43.114;12.434;2022-07-23T13:32:59;99016.91;;;39.88;25.76
33280;BME280;20403;43.114;12.434;2022-07-23T13:35:24;99010.19;;;39.73;25.23
33280;BME280;20403;43.114;12.434;2022-07-23T13:37:50;99013.59;;;39.77;25.44
33280;BME280;20403;43.114;12.434;2022-07-23T13:40:15;99009.50;;;39.48;24.60
33280;BME280;20403;43.114;12.434;2022-07-23T13:42:41;99007.50;;;39.29;25.00
33280;BME280;20403;43.114;12.434;2022-07-23T13:45:07;99005.78;;;39.39;25.69
33280;BME280;20403;43.114;12.434;2022-07-23T13:47:32;99002.16;;;39.45;25.31
33280;BME280;20403;43.114;12.434;2022-07-23T13:49:58;98993.72;;;39.36;25.68
33280;BME280;20403;43.114;12.434;2022-07-23T13:52:24;98989.81;;;39.17;25.69
33280;BME280;20403;43.114;12.434;2022-07-23T13:54:50;98994.69;;;38.82;25.79
33280;BME280;20403;43.114;12.434;2022-07-23T13:57:15;99006.00;;;38.81;26.12
33280;BME280;20403;43.114;12.434;2022-07-23T13:59:41;98994.63;;;38.62;25.79
33280;BME280;20403;43.114;12.434;2022-07-23T14:02:07;98993.97;;;38.55;25.98
33280;BME280;20403;43.114;12.434;2022-07-23T14:04:33;98990.16;;;38.49;25.38
33280;BME280;20403;43.114;12.434;2022-07-23T14:06:58;98996.47;;;38.42;26.53
33280;BME280;20403;43.114;12.434;2022-07-23T14:09:23;98990.22;;;38.18;26.37
33280;BME280;20403;43.114;12.434;2022-07-23T14:11:49;98987.28;;;38.05;27.36
33280;BME280;20403;43.114;12.434;2022-07-23T14:14:16;98984.56;;;38.05;26.74
33280;BME280;20403;43.114;12.434;2022-07-23T14:16:42;98985.53;;;38.18;25.67
33280;BME280;20403;43.114;12.434;2022-07-23T14:19:08;98975.97;;;38.34;25.11
33280;BME280;20403;43.114;12.434;2022-07-23T14:21:33;98981.00;;;38.35;26.17
33280;BME280;20403;43.114;12.434;2022-07-23T14:23:59;98985.94;;;38.44;26.23
33280;BME280;20403;43.114;12.434;2022-07-23T14:26:24;98981.88;;;38.29;24.46
33280;BME280;20403;43.114;12.434;2022-07-23T14:28:50;98980.69;;;38.02;25.56
33280;BME280;20403;43.114;12.434;2022-07-23T14:31:15;98989.53;;;37.79;25.03
33280;BME280;20403;43.114;12.434;2022-07-23T14:33:41;98975.19;;;37.75;25.08
33280;BME280;20403;43.114;12.434;2022-07-23T14:36:06;98985.31;;;37.75;25.27
33280;BME280;20403;43.114;12.434;2022-07-23T14:38:32;98983.78;;;37.74;25.31
33280;BME280;20403;43.114;12.434;2022-07-23T14:40:57;98976.38;;;37.74;25.17
33280;BME280;20403;43.114;12.434;2022-07-23T14:43:23;98982.69;;;37.68;25.79
33280;BME280;20403;43.114;12.434;2022-07-23T14:45:48;98987.91;;;37.51;25.55
33280;BME280;20403;43.114;12.434;2022-07-23T14:48:13;98984.25;;;37.31;25.94
33280;BME280;20403;43.114;12.434;2022-07-23T14:50:39;98982.75;;;37.26;25.79
33280;BME280;20403;43.114;12.434;2022-07-23T14:53:05;98986.88;;;37.38;25.88
33280;BME280;20403;43.114;12.434;2022-07-23T14:55:31;98986.88;;;37.41;25.92
33280;BME280;20403;43.114;12.434;2022-07-23T14:57:57;98981.56;;;37.27;26.99
33280;BME280;20403;43.114;12.434;2022-07-23T15:00:23;98975.53;;;37.09;27.20
33280;BME280;20403;43.114;12.434;2022-07-23T15:02:48;98981.44;;;37.00;26.86
33280;BME280;20403;43.114;12.434;2022-07-23T15:05:13;98988.16;;;36.85;27.09
33280;BME280;20403;43.114;12.434;2022-07-23T15:07:39;98981.09;;;36.94;27.86
33280;BME280;20403;43.114;12.434;2022-07-23T15:10:05;98976.47;;;36.88;27.77
33280;BME280;20403;43.114;12.434;2022-07-23T15:12:30;98980.75;;;36.89;28.08
33280;BME280;20403;43.114;12.434;2022-07-23T15:14:56;98989.34;;;36.84;28.22
33280;BME280;20403;43.114;12.434;2022-07-23T15:17:21;98995.13;;;36.86;27.88
33280;BME280;20403;43.114;12.434;2022-07-23T15:19:47;98980.88;;;36.74;28.47
33280;BME280;20403;43.114;12.434;2022-07-23T15:22:12;98987.16;;;36.64;29.01
33280;BME280;20403;43.114;12.434;2022-07-23T15:24:39;98979.84;;;36.54;28.05
33280;BME280;20403;43.114;12.434;2022-07-23T15:27:04;98982.66;;;36.43;28.76
33280;BME280;20403;43.114;12.434;2022-07-23T15:29:29;98978.72;;;36.51;28.95
33280;BME280;20403;43.114;12.434;2022-07-23T15:31:55;98989.28;;;36.38;28.29
33280;BME280;20403;43.114;12.434;2022-07-23T15:34:21;98981.50;;;36.37;28.24
33280;BME280;20403;43.114;12.434;2022-07-23T15:36:46;98990.47;;;36.37;28.18
33280;BME280;20403;43.114;12.434;2022-07-23T15:39:12;98980.41;;;36.27;28.13
33280;BME280;20403;43.114;12.434;2022-07-23T15:41:38;98983.13;;;36.27;28.70
33280;BME280;20403;43.114;12.434;2022-07-23T15:44:04;98986.56;;;36.38;28.54
33280;BME280;20403;43.114;12.434;2022-07-23T15:46:29;98994.69;;;36.42;28.47
33280;BME280;20403;43.114;12.434;2022-07-23T15:48:55;98988.88;;;36.40;28.56
33280;BME280;20403;43.114;12.434;2022-07-23T15:51:20;98985.84;;;36.31;27.79
33280;BME280;20403;43.114;12.434;2022-07-23T15:53:46;98983.13;;;36.27;28.67
33280;BME280;20403;43.114;12.434;2022-07-23T15:56:11;98984.75;;;36.21;28.42
33280;BME280;20403;43.114;12.434;2022-07-23T15:58:37;98985.56;;;36.14;28.31
33280;BME280;20403;43.114;12.434;2022-07-23T16:01:03;98982.47;;;36.12;27.86
33280;BME280;20403;43.114;12.434;2022-07-23T16:03:35;98987.13;;;36.12;28.52
33280;BME280;20403;43.114;12.434;2022-07-23T16:06:01;98981.28;;;36.13;28.90
33280;BME280;20403;43.114;12.434;2022-07-23T16:08:27;98980.09;;;36.22;28.82
33280;BME280;20403;43.114;12.434;2022-07-23T16:10:53;98978.94;;;36.15;28.35
33280;BME280;20403;43.114;12.434;2022-07-23T16:13:22;98980.50;;;36.16;28.73
33280;BME280;20403;43.114;12.434;2022-07-23T16:15:47;98975.44;;;36.18;29.17
33280;BME280;20403;43.114;12.434;2022-07-23T16:18:13;98983.22;;;36.13;28.07
33280;BME280;20403;43.114;12.434;2022-07-23T16:20:38;98971.63;;;36.05;29.67
33280;BME280;20403;43.114;12.434;2022-07-23T16:23:05;98973.56;;;36.01;28.66
33280;BME280;20403;43.114;12.434;2022-07-23T16:25:31;98975.53;;;36.01;29.09
33280;BME280;20403;43.114;12.434;2022-07-23T16:27:57;98977.84;;;35.98;28.36
33280;BME280;20403;43.114;12.434;2022-07-23T16:30:22;98966.25;;;35.98;28.27
33280;BME280;20403;43.114;12.434;2022-07-23T16:32:48;98979.44;;;35.96;28.68
33280;BME280;20403;43.114;12.434;2022-07-23T16:35:13;98979.47;;;35.89;28.72
33280;BME280;20403;43.114;12.434;2022-07-23T16:37:39;98980.25;;;35.86;28.48
33280;BME280;20403;43.114;12.434;2022-07-23T16:40:06;98979.84;;;35.84;28.62
33280;BME280;20403;43.114;12.434;2022-07-23T16:42:33;98973.28;;;35.81;28.14
33280;BME280;20403;43.114;12.434;2022-07-23T16:44:58;98975.59;;;35.83;28.50
33280;BME280;20403;43.114;12.434;2022-07-23T16:47:24;98981.84;;;35.72;29.39
33280;BME280;20403;43.114;12.434;2022-07-23T16:49:49;98974.88;;;35.61;29.04
33280;BME280;20403;43.114;12.434;2022-07-23T16:52:15;98980.34;;;35.53;28.52
33280;BME280;20403;43.114;12.434;2022-07-23T16:54:40;98988.88;;;35.55;28.52
33280;BME280;20403;43.114;12.434;2022-07-23T16:57:06;98990.84;;;35.48;28.70
33280;BME280;20403;43.114;12.434;2022-07-23T16:59:31;98983.91;;;35.36;28.59
33280;BME280;20403;43.114;12.434;2022-07-23T17:01:57;98989.31;;;35.36;28.67
33280;BME280;20403;43.114;12.434;2022-07-23T17:04:22;98986.19;;;35.38;28.74
33280;BME280;20403;43.114;12.434;2022-07-23T17:06:48;98989.69;;;35.38;28.89
33280;BME280;20403;43.114;12.434;2022-07-23T17:09:14;98984.66;;;35.33;28.47
33280;BME280;20403;43.114;12.434;2022-07-23T17:11:40;98988.53;;;35.28;28.83
33280;BME280;20403;43.114;12.434;2022-07-23T17:14:05;98999.41;;;35.21;29.22
33280;BME280;20403;43.114;12.434;2022-07-23T17:16:32;98992.81;;;35.19;29.30
33280;BME280;20403;43.114;12.434;2022-07-23T17:18:58;99004.84;;;35.14;29.46
33280;BME280;20403;43.114;12.434;2022-07-23T17:21:23;99007.91;;;35.09;29.93
33280;BME280;20403;43.114;12.434;2022-07-23T17:23:49;99012.97;;;35.03;29.83
33280;BME280;20403;43.114;12.434;2022-07-23T17:26:14;99008.31;;;35.00;29.77
33280;BME280;20403;43.114;12.434;2022-07-23T17:28:40;99011.41;;;34.95;29.60
33280;BME280;20403;43.114;12.434;2022-07-23T17:31:05;99018.38;;;35.00;29.22
33280;BME280;20403;43.114;12.434;2022-07-23T17:33:30;99014.53;;;34.90;29.54
33280;BME280;20403;43.114;12.434;2022-07-23T17:35:56;99013.38;;;34.80;28.83
33280;BME280;20403;43.114;12.434;2022-07-23T17:38:22;99014.53;;;34.76;28.72
33280;BME280;20403;43.114;12.434;2022-07-23T17:40:49;99018.00;;;34.72;29.16